Portada
METAR-TAF:

METAR-TAF

Aeroports :

Ponta Delgada, Açores, Portugal

latitud: 37-44N, longitud: 025-42W, altitud: 71 m

Observació

L'informe es va fer fa 31 minuts, a les 19:30 UTC
Vent 7 kt del Nord, variant entre Nord-Oest i Nord/Nord-Est
Temperatura 15°C
Humitat 82%
Pressió 1028 hPa
Visibilitat 10 km o més
Escasses núvols a una alçada de 700 ft
Núvols disperses a una alçada de 1600 ft
Cel ennuvolat a una alçada de 2500 ft

METAR: LPPD 201930Z 35007KT 310V030 9999 FEW007 SCT016 BKN025 15/12 Q1028

Hora: 20:01 (20:01 UTC)

Pronòstic

L'informe es va fer fa 3 hores i 1 minuts, a les 17:00 UTC
Pronòstic vàlid del 20 a les 18 UTC al 21 a les 18 UTC
Vent 15 kt del Nord-Oest
Visibilitat 10 km o més
Núvols disperses a una alçada de 1800 ft
Temporalment
l' 20 a les 18 UTC al 21 a les 18 UTC
Visibilitat: 5000 m
Núvols disperses a una alçada de 500 ft
Cel ennuvolat a una alçada de 1200 ft
pluja, plugim, boirina

TAF: LPPD 201700Z 2018/2118 32015KT 9999 SCT018 TEMPO 2018/2118 5000 -RADZ BR SCT005 BKN012

Observacions i pronòstics meteorològics de més de 4000 aeroports (METAR i TAF).

Les estacions disponibles són els punts grocs i vermells al mapa.

Posi el ratolí al punt desitjat per veure el nom de l'estació.

Feu clic per veure les observacions i els pronòstics meteorològics.

Per canviar el mapa: feu clic els botons verds amb una creu de color negre per apropar; al botó verd amb un guió per allunyar la imatge; o en les fletxes verdes per a mapes adjacents.


METAR-TAF: